Time;durP1;ratioP1;P1;durP2;ratioP2;P2;SDS_P1;SDS_P2;PMS_P1;PMS_P2;Temp;Humidity;BMP_temperature;BMP_pressure;BME280_temperature;BME280_humidity;BME280_pressure;Samples;Min_cycle;Max_cycle;Signal;HPM_P1;HPM_P2
2021/07/10 00:01:32;;;;;;;9.90;6.80;;;;;;;24.01;100.00;100496.37;1742942;82;21014;-65
2021/07/10 00:03:59;;;;;;;8.93;6.70;;;;;;;24.19;100.00;100496.38;1741643;80;21052;-61
2021/07/10 00:06:25;;;;;;;8.20;6.43;;;;;;;23.74;100.00;100498.48;1739047;82;21123;-66
2021/07/10 00:08:52;;;;;;;9.33;5.83;;;;;;;23.80;100.00;100492.12;1741819;82;21538;-65
2021/07/10 00:11:19;;;;;;;8.23;6.27;;;;;;;23.58;100.00;100493.65;1696989;82;21056;-65
2021/07/10 00:13:47;;;;;;;7.60;5.87;;;;;;;23.71;100.00;100494.48;1744744;82;20931;-66
2021/07/10 00:16:14;;;;;;;8.77;5.73;;;;;;;23.80;100.00;100488.13;1737956;82;21496;-61
2021/07/10 00:18:40;;;;;;;8.73;6.73;;;;;;;23.98;100.00;100496.10;1744590;82;20955;-65
2021/07/10 00:21:06;;;;;;;6.90;5.73;;;;;;;23.86;100.00;100499.03;1738473;82;21153;-65
2021/07/10 00:23:34;;;;;;;10.87;6.33;;;;;;;23.92;100.00;100491.32;1737557;82;20982;-66
2021/07/10 00:26:00;;;;;;;7.93;6.03;;;;;;;23.76;100.00;100498.50;1741877;81;20974;-68
2021/07/10 00:28:28;;;;;;;10.17;6.73;;;;;;;23.73;100.00;100499.56;1740492;81;21578;-62
2021/07/10 00:30:54;;;;;;;9.30;6.13;;;;;;;23.61;100.00;100496.33;1743220;81;21080;-65
2021/07/10 00:33:21;;;;;;;9.23;7.10;;;;;;;23.53;100.00;100500.30;1737028;82;21156;-65
2021/07/10 00:35:47;;;;;;;11.37;7.17;;;;;;;23.39;100.00;100498.66;1742308;81;21524;-66
2021/07/10 00:38:14;;;;;;;9.50;6.00;;;;;;;23.28;100.00;100495.70;1740213;81;20981;-63
2021/07/10 00:40:41;;;;;;;8.17;6.43;;;;;;;23.24;100.00;100497.28;1742965;81;20942;-66
2021/07/10 00:43:08;;;;;;;7.17;6.20;;;;;;;23.20;100.00;100499.66;1742986;82;21077;-66
2021/07/10 00:45:34;;;;;;;7.93;5.87;;;;;;;23.31;100.00;100492.52;1738873;82;21147;-66
2021/07/10 00:48:00;;;;;;;7.53;6.37;;;;;;;23.30;100.00;100492.27;1743840;82;21001;-65
2021/07/10 00:50:27;;;;;;;9.63;7.00;;;;;;;23.30;100.00;100493.59;1736869;82;21043;-61
2021/07/10 00:52:54;;;;;;;7.43;5.73;;;;;;;23.06;100.00;100495.88;1742888;82;21171;-66
2021/07/10 00:55:21;;;;;;;8.30;6.87;;;;;;;23.03;100.00;100491.91;1738231;81;21031;-67
2021/07/10 00:57:47;;;;;;;9.00;6.53;;;;;;;22.99;100.00;100492.13;1746661;82;21193;-67
2021/07/10 01:00:17;;;;;;;8.87;6.70;;;;;;;23.11;100.00;100489.78;1738521;81;20880;-65
2021/07/10 01:02:44;;;;;;;7.83;6.50;;;;;;;23.04;100.00;100493.50;1737198;82;20919;-66
2021/07/10 01:05:14;;;;;;;8.90;7.00;;;;;;;22.97;100.00;100494.80;1755243;80;21022;-66
2021/07/10 01:07:42;;;;;;;8.97;7.23;;;;;;;23.05;100.00;100496.41;1777434;80;20986;-67
2021/07/10 01:10:11;;;;;;;9.20;6.90;;;;;;;23.05;100.00;100495.09;1776933;80;21140;-60
2021/07/10 01:12:39;;;;;;;9.77;7.27;;;;;;;23.34;100.00;100490.68;1771386;80;20988;-65
2021/07/10 01:15:10;;;;;;;9.43;7.47;;;;;;;23.27;100.00;100496.77;1774894;80;21041;-66
2021/07/10 01:17:38;;;;;;;14.27;8.30;;;;;;;23.26;100.00;100489.83;1767258;80;20970;-66
2021/07/10 01:20:10;;;;;;;10.17;7.27;;;;;;;23.17;100.00;100488.22;1787932;79;20947;-62
2021/07/10 01:22:40;;;;;;;9.77;6.60;;;;;;;23.16;100.00;100491.94;1758567;79;21142;-67
2021/07/10 01:25:10;;;;;;;12.75;8.45;;;;;;;23.27;100.00;100488.80;1787420;79;20974;-66
2021/07/10 01:27:37;;;;;;;17.45;9.20;;;;;;;23.36;100.00;100493.06;1724698;82;21531;-66
2021/07/10 01:30:08;;;;;;;19.50;11.40;;;;;;;23.23;100.00;100494.37;1742472;81;21098;-66
2021/07/10 01:32:36;;;;;;;23.12;11.63;;;;;;;23.32;100.00;100491.45;1740386;81;21163;-67
2021/07/10 01:35:04;;;;;;;19.80;11.33;;;;;;;23.29;100.00;100502.08;1739964;81;21057;-67
2021/07/10 01:37:31;;;;;;;17.17;12.63;;;;;;;22.83;100.00;100501.06;1742665;81;21563;-65
2021/07/10 01:39:58;;;;;;;17.63;11.93;;;;;;;22.57;100.00;100504.91;1743168;81;20916;-66
2021/07/10 01:42:25;;;;;;;18.03;11.47;;;;;;;22.67;100.00;100507.36;1741748;81;20949;-67
2021/07/10 01:44:52;;;;;;;18.70;12.20;;;;;;;22.62;100.00;100506.02;1742420;81;21095;-65
2021/07/10 01:47:19;;;;;;;17.63;11.07;;;;;;;22.61;100.00;100511.83;1743203;81;21120;-65
2021/07/10 01:49:45;;;;;;;16.07;12.57;;;;;;;22.56;100.00;100503.31;1742945;81;21554;-66
2021/07/10 01:52:12;;;;;;;13.77;10.80;;;;;;;22.63;100.00;100504.95;1741652;81;20956;-60
2021/07/10 01:54:40;;;;;;;18.73;12.57;;;;;;;22.68;100.00;100500.98;1742058;80;21755;-65
2021/07/10 01:57:08;;;;;;;14.70;11.03;;;;;;;22.42;100.00;100499.49;1742437;80;21109;-65
2021/07/10 01:59:35;;;;;;;15.07;11.57;;;;;;;22.58;100.00;100497.23;1740074;81;21130;-65
2021/07/10 02:02:02;;;;;;;15.27;11.33;;;;;;;22.28;100.00;100503.66;1743087;80;20937;-60
2021/07/10 02:04:29;;;;;;;12.53;10.57;;;;;;;22.41;100.00;100507.73;1745156;80;21648;-60
2021/07/10 02:06:56;;;;;;;14.43;11.03;;;;;;;22.37;100.00;100506.64;1752266;80;21122;-65
2021/07/10 02:09:22;;;;;;;11.73;10.00;;;;;;;22.55;100.00;100505.70;1751044;80;21061;-65
2021/07/10 02:11:49;;;;;;;14.53;9.90;;;;;;;23.08;100.00;100512.92;1792008;79;21152;-64
2021/07/10 02:14:18;;;;;;;15.43;10.40;;;;;;;23.37;100.00;100505.30;1811153;77;20980;-61
2021/07/10 02:16:46;;;;;;;12.33;9.47;;;;;;;23.79;100.00;100507.83;1808654;78;21047;-65
2021/07/10 02:19:12;;;;;;;14.17;10.67;;;;;;;24.03;100.00;100503.57;1806429;78;20993;-62
2021/07/10 02:21:39;;;;;;;12.47;10.27;;;;;;;24.55;100.00;100500.37;1811401;78;21091;-65
2021/07/10 02:24:08;;;;;;;12.43;9.70;;;;;;;25.07;100.00;100495.65;1809260;78;22388;-60
2021/07/10 02:26:35;;;;;;;15.50;10.37;;;;;;;25.63;100.00;100491.37;1810135;78;21076;-65
2021/07/10 02:29:02;;;;;;;16.13;10.57;;;;;;;26.15;100.00;100480.04;1810820;78;21100;-66
2021/07/10 02:31:30;;;;;;;21.70;12.20;;;;;;;26.76;100.00;100483.98;1810790;78;21073;-65
2021/07/10 02:33:57;;;;;;;19.43;11.57;;;;;;;27.27;100.00;100482.02;1808556;78;20934;-64
2021/07/10 02:36:23;;;;;;;19.33;12.57;;;;;;;27.78;100.00;100485.32;1813365;78;21500;-62
2021/07/10 02:38:50;;;;;;;32.37;13.47;;;;;;;28.15;100.00;100483.64;1813967;78;21076;-65
2021/07/10 02:41:16;;;;;;;19.03;12.63;;;;;;;28.63;100.00;100479.28;1802514;78;21891;-65
2021/07/10 02:43:43;;;;;;;12.17;9.57;;;;;;;29.10;100.00;100477.30;1812294;78;20983;-63
2021/07/10 02:46:09;;;;;;;10.00;9.00;;;;;;;29.66;100.00;100482.73;1812748;78;21049;-63
2021/07/10 02:48:37;;;;;;;9.90;8.40;;;;;;;30.21;100.00;100470.94;1803327;78;21132;-65
2021/07/10 02:51:04;;;;;;;9.30;8.13;;;;;;;30.76;96.44;100470.50;1813103;78;22194;-62
2021/07/10 02:53:30;;;;;;;9.28;8.28;;;;;;;31.34;83.24;100473.39;1810889;78;21045;-64
2021/07/10 02:55:59;;;;;;;8.83;7.55;;;;;;;31.90;73.85;100475.66;1812433;78;20977;-60
2021/07/10 02:58:25;;;;;;;8.68;7.78;;;;;;;32.25;64.98;100478.80;1808629;78;21096;-60
2021/07/10 03:00:52;;;;;;;9.75;8.55;;;;;;;32.52;61.52;100481.64;1794962;78;21693;-65
2021/07/10 03:03:18;;;;;;;11.20;8.10;;;;;;;32.89;57.82;100482.14;1759414;81;20975;-64
2021/07/10 03:05:45;;;;;;;8.83;7.78;;;;;;;33.17;56.32;100483.79;1748818;80;20871;-63
2021/07/10 03:08:14;;;;;;;9.65;8.35;;;;;;;33.42;55.41;100481.22;1732881;82;20947;-60
2021/07/10 03:10:43;;;;;;;8.53;7.65;;;;;;;33.44;54.64;100478.96;1751226;81;35803;-66
2021/07/10 03:13:09;;;;;;;9.60;8.58;;;;;;;33.74;52.84;100478.88;1727723;83;21102;-62
2021/07/10 03:15:37;;;;;;;11.00;7.42;;;;;;;34.11;50.83;100480.56;1751440;81;21002;-63
2021/07/10 03:18:03;;;;;;;8.68;7.12;;;;;;;34.66;48.99;100483.86;1727304;83;21015;-64
2021/07/10 03:20:30;;;;;;;8.68;7.37;;;;;;;35.31;46.74;100472.47;1749708;81;21062;-61
2021/07/10 03:22:58;;;;;;;9.00;7.08;;;;;;;35.83;45.08;100473.47;1748514;82;21032;-64
2021/07/10 03:25:25;;;;;;;8.23;7.20;;;;;;;36.08;44.12;100477.42;1748820;82;21093;-65
2021/07/10 03:27:52;;;;;;;7.95;7.08;;;;;;;36.50;42.29;100477.10;1730474;81;20991;-65
2021/07/10 03:30:20;;;;;;;7.90;6.50;;;;;;;37.05;40.64;100471.70;1748806;81;21003;-60
2021/07/10 03:32:48;;;;;;;9.35;7.03;;;;;;;37.30;39.51;100479.01;1749052;81;21743;-65
2021/07/10 03:35:18;;;;;;;8.00;6.55;;;;;;;37.82;38.61;100474.95;1748541;82;20899;-64
2021/07/10 03:37:47;;;;;;;8.03;6.10;;;;;;;38.21;38.16;100476.19;1730524;82;21147;-64
2021/07/10 03:40:17;;;;;;;8.25;6.00;;;;;;;38.62;37.47;100472.35;1746398;81;21025;-60
2021/07/10 03:42:44;;;;;;;7.85;6.28;;;;;;;38.97;36.35;100475.36;1748273;80;20973;-64
2021/07/10 03:45:12;;;;;;;7.80;6.42;;;;;;;39.27;35.57;100479.45;1745283;82;20942;-64
2021/07/10 03:47:38;;;;;;;8.58;7.78;;;;;;;39.27;35.12;100476.72;1728874;81;20951;-64
2021/07/10 03:50:07;;;;;;;9.63;6.78;;;;;;;39.06;34.90;100473.94;1751150;81;21265;-61
2021/07/10 03:52:33;;;;;;;8.43;6.10;;;;;;;39.26;34.57;100470.48;1721162;83;21045;-64
2021/07/10 03:55:01;;;;;;;7.70;6.75;;;;;;;39.47;34.05;100470.50;1745711;81;21536;-65
2021/07/10 03:57:28;;;;;;;8.43;6.30;;;;;;;39.57;33.74;100469.83;1718746;81;21112;-65
2021/07/10 03:59:55;;;;;;;6.53;5.80;;;;;;;39.74;33.70;100470.62;1745375;81;21389;-64
2021/07/10 04:02:21;;;;;;;6.72;5.75;;;;;;;39.73;31.57;100467.66;1724061;81;21902;-62
2021/07/10 04:04:48;;;;;;;5.97;5.33;;;;;;;39.35;32.52;100469.59;1721561;81;21221;-64
2021/07/10 04:07:15;;;;;;;7.17;5.95;;;;;;;39.22;32.84;100462.81;1755314;80;21120;-65
2021/07/10 04:09:41;;;;;;;7.25;6.55;;;;;;;39.37;33.11;100468.66;1755589;80;20977;-65
2021/07/10 04:12:08;;;;;;;6.70;6.00;;;;;;;39.63;33.18;100458.79;1724748;81;21013;-61
2021/07/10 04:14:37;;;;;;;10.35;6.65;;;;;;;39.43;32.75;100464.22;1723894;83;22229;-65
2021/07/10 04:17:04;;;;;;;7.62;5.80;;;;;;;38.67;34.69;100464.63;1755632;80;21041;-65
2021/07/10 04:19:31;;;;;;;7.55;5.70;;;;;;;38.69;33.50;100465.06;1756888;79;21287;-65
2021/07/10 04:21:57;;;;;;;6.55;5.40;;;;;;;39.04;33.55;100463.97;1724701;81;21117;-64
2021/07/10 04:24:25;;;;;;;6.08;4.95;;;;;;;39.70;31.90;100460.22;1722233;81;21070;-63
2021/07/10 04:26:51;;;;;;;8.40;5.53;;;;;;;39.92;30.18;100454.95;1757033;79;21370;-65
2021/07/10 04:29:18;;;;;;;6.20;5.35;;;;;;;39.58;30.07;100458.53;1724331;81;21020;-65
2021/07/10 04:31:46;;;;;;;6.03;5.30;;;;;;;39.47;29.86;100460.37;1724589;82;21047;-64
2021/07/10 04:34:13;;;;;;;6.85;4.85;;;;;;;39.54;30.39;100458.30;1756078;79;20891;-63
2021/07/10 04:36:40;;;;;;;8.53;5.10;;;;;;;39.62;31.28;100460.70;1755022;79;21226;-65
2021/07/10 04:39:06;;;;;;;7.30;5.67;;;;;;;39.88;31.22;100463.89;1724707;81;22921;-66
2021/07/10 04:41:33;;;;;;;5.55;4.87;;;;;;;40.36;31.25;100465.26;1730716;81;21045;-65
2021/07/10 04:44:01;;;;;;;6.80;5.50;;;;;;;40.83;27.97;100462.20;1755890;79;21086;-65
2021/07/10 04:46:28;;;;;;;7.47;5.60;;;;;;;40.42;29.08;100458.84;1756676;79;20942;-63
2021/07/10 04:48:54;;;;;;;5.97;5.22;;;;;;;40.73;29.80;100464.33;1716672;81;21130;-66
2021/07/10 04:51:22;;;;;;;6.30;5.53;;;;;;;40.81;29.41;100462.41;1716103;81;21145;-63
2021/07/10 04:53:48;;;;;;;6.50;5.80;;;;;;;40.86;29.93;100466.12;1722988;81;20995;-65
2021/07/10 04:56:16;;;;;;;8.48;6.25;;;;;;;40.91;28.75;100464.97;1748553;79;20974;-61
2021/07/10 04:58:44;;;;;;;8.00;5.58;;;;;;;40.84;29.23;100459.69;1753726;79;21053;-61
2021/07/10 05:01:16;;;;;;;5.97;5.37;;;;;;;40.92;29.26;100461.88;1752577;79;21004;-65
2021/07/10 05:03:40;;;;;;;6.40;5.00;;;;;;;40.89;29.13;100461.86;1724108;80;21139;-65
2021/07/10 05:06:09;;;;;;;5.90;5.10;;;;;;;40.83;29.38;100459.47;1719374;81;20967;-63
2021/07/10 05:08:36;;;;;;;5.83;4.78;;;;;;;40.57;29.99;100455.05;1752105;79;21247;-61
2021/07/10 05:11:02;;;;;;;6.33;5.30;;;;;;;40.45;29.39;100458.08;1755983;79;21599;-65
2021/07/10 05:13:29;;;;;;;7.17;4.50;;;;;;;40.37;29.40;100455.11;1724373;82;21515;-65
2021/07/10 05:15:56;;;;;;;5.37;4.47;;;;;;;40.42;29.81;100456.11;1724549;81;21130;-62
2021/07/10 05:18:23;;;;;;;5.65;4.80;;;;;;;40.94;29.14;100462.84;1756267;79;20887;-64
2021/07/10 05:20:49;;;;;;;6.40;4.67;;;;;;;41.00;29.23;100458.61;1754635;79;20923;-64
2021/07/10 05:23:17;;;;;;;6.15;4.75;;;;;;;41.31;28.26;100460.64;1756028;79;21068;-64
2021/07/10 05:25:44;;;;;;;6.22;4.58;;;;;;;40.93;29.08;100457.18;1756041;79;21033;-62
2021/07/10 05:28:11;;;;;;;7.67;5.37;;;;;;;40.65;29.08;100452.36;1755704;80;21146;-64
2021/07/10 05:30:37;;;;;;;5.10;4.47;;;;;;;39.95;30.00;100454.98;1724116;82;20951;-60
2021/07/10 05:33:04;;;;;;;5.62;4.72;;;;;;;39.72;30.30;100457.91;1723919;83;21411;-64
2021/07/10 05:35:30;;;;;;;5.80;5.10;;;;;;;39.49;31.17;100452.61;1746793;79;21041;-63
2021/07/10 05:37:59;;;;;;;6.83;4.85;;;;;;;39.49;30.84;100458.06;1756369;79;21050;-60
2021/07/10 05:40:25;;;;;;;5.90;4.85;;;;;;;39.35;30.42;100455.96;1755870;80;21129;-61
2021/07/10 05:42:53;;;;;;;4.85;4.28;;;;;;;39.32;31.11;100455.34;1724717;81;21612;-62
2021/07/10 05:45:20;;;;;;;7.67;4.33;;;;;;;39.38;30.45;100455.22;1722876;81;21145;-63
2021/07/10 05:47:48;;;;;;;4.78;4.28;;;;;;;39.59;30.86;100452.48;1754151;80;21002;-63
2021/07/10 05:50:15;;;;;;;6.33;4.42;;;;;;;39.74;30.92;100450.15;1723796;81;21595;-63
2021/07/10 05:52:42;;;;;;;5.10;4.08;;;;;;;38.95;31.79;100452.58;1722983;83;21172;-62
2021/07/10 05:55:10;;;;;;;5.85;4.10;;;;;;;38.63;31.54;100450.76;1754845;79;21033;-63
2021/07/10 05:57:36;;;;;;;6.90;4.37;;;;;;;39.36;31.69;100446.64;1756254;79;20994;-63
2021/07/10 06:00:08;;;;;;;5.53;3.55;;;;;;;39.63;31.06;100455.48;1755582;80;20930;-63
2021/07/10 06:02:34;;;;;;;5.75;4.75;;;;;;;39.65;30.96;100448.27;1737266;82;21082;-61
2021/07/10 06:05:02;;;;;;;5.45;4.10;;;;;;;39.78;31.53;100449.59;1732277;82;21111;-64
2021/07/10 06:07:29;;;;;;;6.15;4.35;;;;;;;40.06;31.25;100447.66;1750794;81;20966;-64
2021/07/10 06:09:56;;;;;;;5.95;4.60;;;;;;;40.40;30.65;100446.16;1727082;83;21496;-63
2021/07/10 06:12:22;;;;;;;11.50;5.03;;;;;;;40.31;30.19;100445.14;1751304;81;21076;-64
2021/07/10 06:14:49;;;;;;;7.67;4.42;;;;;;;40.47;30.51;100437.23;1747854;81;20895;-61
2021/07/10 06:17:15;;;;;;;5.28;4.33;;;;;;;40.44;29.83;100438.77;1732558;82;22589;-63
2021/07/10 06:19:42;;;;;;;5.87;3.98;;;;;;;40.08;30.08;100436.34;1751032;81;21462;-64
2021/07/10 06:22:09;;;;;;;5.70;4.10;;;;;;;40.19;31.35;100434.51;1748423;80;21128;-63
2021/07/10 06:24:36;;;;;;;7.37;3.90;;;;;;;40.38;29.96;100430.13;1732205;81;21025;-63
2021/07/10 06:27:04;;;;;;;6.92;3.80;;;;;;;40.13;29.96;100428.63;1750271;81;21069;-61
2021/07/10 06:29:30;;;;;;;9.08;4.12;;;;;;;40.22;30.60;100433.75;1748177;82;21257;-63
2021/07/10 06:31:57;;;;;;;6.03;4.08;;;;;;;40.22;29.62;100426.92;1732653;82;21452;-62
2021/07/10 06:34:23;;;;;;;6.03;4.30;;;;;;;40.18;31.08;100425.34;1751018;81;21470;-63
2021/07/10 06:36:50;;;;;;;5.22;4.50;;;;;;;40.78;30.65;100432.52;1748852;81;21058;-62
2021/07/10 06:39:18;;;;;;;7.37;4.50;;;;;;;40.94;30.58;100435.50;1747636;82;20939;-64
2021/07/10 06:41:44;;;;;;;5.45;4.47;;;;;;;41.19;30.24;100431.52;1732807;82;21136;-63
2021/07/10 06:44:11;;;;;;;6.33;4.47;;;;;;;41.08;29.39;100431.48;1750901;81;20993;-63
2021/07/10 06:46:38;;;;;;;6.35;4.83;;;;;;;41.12;28.94;100439.11;1727083;83;21016;-63
2021/07/10 06:49:05;;;;;;;5.53;4.25;;;;;;;40.87;29.37;100438.20;1748322;81;20995;-65
2021/07/10 06:51:31;;;;;;;5.08;4.25;;;;;;;40.53;30.56;100428.27;1744497;82;21393;-60
2021/07/10 06:53:58;;;;;;;5.45;4.47;;;;;;;40.89;29.31;100435.89;1727417;82;21202;-64
2021/07/10 06:56:24;;;;;;;4.72;3.70;;;;;;;40.52;29.17;100430.02;1742781;81;21038;-63
2021/07/10 06:58:51;;;;;;;6.25;3.45;;;;;;;40.57;28.89;100427.73;1742838;80;20997;-62
2021/07/10 07:01:17;;;;;;;4.15;3.55;;;;;;;40.27;28.41;100433.41;1727009;82;20934;-63
2021/07/10 07:03:44;;;;;;;4.05;2.72;;;;;;;40.09;29.10;100427.80;1743177;80;20958;-63
2021/07/10 07:06:11;;;;;;;4.08;3.35;;;;;;;40.40;28.40;100427.04;1719368;81;21138;-63
2021/07/10 07:08:39;;;;;;;5.12;3.25;;;;;;;40.29;27.99;100421.51;1716828;81;21023;-63
2021/07/10 07:11:05;;;;;;;4.28;3.60;;;;;;;39.63;28.22;100420.00;1749932;79;20911;-60
2021/07/10 07:13:32;;;;;;;6.45;3.77;;;;;;;39.41;28.48;100423.70;1746560;80;21088;-62
2021/07/10 07:15:59;;;;;;;4.42;3.50;;;;;;;39.19;29.35;100424.02;1749517;79;21084;-63
2021/07/10 07:18:25;;;;;;;4.05;3.35;;;;;;;39.20;29.81;100417.41;1749364;79;21219;-63
2021/07/10 07:20:52;;;;;;;4.75;3.20;;;;;;;38.92;29.51;100419.24;1719720;81;20971;-61
2021/07/10 07:23:19;;;;;;;3.80;3.42;;;;;;;39.12;29.75;100409.73;1716850;83;20955;-63
2021/07/10 07:25:45;;;;;;;4.83;3.87;;;;;;;38.40;31.01;100412.70;1748880;79;20997;-63
2021/07/10 07:28:12;;;;;;;4.97;3.87;;;;;;;38.09;31.76;100413.20;1749009;79;20989;-63
2021/07/10 07:30:39;;;;;;;6.80;3.98;;;;;;;38.69;31.02;100411.93;1717418;81;21140;-63
2021/07/10 07:33:05;;;;;;;4.85;3.72;;;;;;;38.36;30.45;100415.38;1718723;81;20923;-63
2021/07/10 07:35:32;;;;;;;4.30;3.52;;;;;;;38.30;30.17;100414.11;1752358;79;20978;-63
2021/07/10 07:38:00;;;;;;;7.42;3.83;;;;;;;38.17;30.38;100404.57;1718322;81;21025;-63
2021/07/10 07:40:27;;;;;;;4.53;3.62;;;;;;;38.23;29.48;100415.37;1716769;81;21109;-64
2021/07/10 07:42:55;;;;;;;7.28;3.70;;;;;;;38.61;28.64;100404.83;1750155;79;21313;-62
2021/07/10 07:45:23;;;;;;;3.85;3.30;;;;;;;38.46;28.95;100416.69;1749503;79;20983;-64
2021/07/10 07:47:50;;;;;;;4.42;2.87;;;;;;;38.38;29.27;100410.94;1712098;80;20996;-64
2021/07/10 07:50:17;;;;;;;5.17;4.05;;;;;;;38.19;30.12;100399.56;1717330;81;21173;-63
2021/07/10 07:52:44;;;;;;;5.20;3.83;;;;;;;37.92;29.56;100397.38;1748611;80;21037;-63
2021/07/10 07:55:11;;;;;;;4.65;3.98;;;;;;;38.13;29.88;100402.38;1718165;81;21144;-63
2021/07/10 07:57:38;;;;;;;5.15;3.60;;;;;;;38.14;28.13;100398.48;1716785;82;21098;-62
2021/07/10 08:00:09;;;;;;;8.10;4.10;;;;;;;37.88;28.21;100393.23;1749089;80;21077;-63
2021/07/10 08:02:35;;;;;;;4.90;4.15;;;;;;;37.88;28.47;100403.34;1748385;80;20978;-63
2021/07/10 08:05:04;;;;;;;4.25;3.50;;;;;;;37.84;29.47;100392.95;1748920;80;21018;-62
2021/07/10 08:07:31;;;;;;;6.17;3.20;;;;;;;38.06;29.95;100397.59;1717584;81;21124;-60
2021/07/10 08:09:57;;;;;;;5.30;3.50;;;;;;;38.61;29.85;100393.93;1717845;83;20884;-62
2021/07/10 08:12:23;;;;;;;5.78;3.55;;;;;;;39.04;27.89;100386.86;1746366;80;21461;-62
2021/07/10 08:14:52;;;;;;;4.70;3.50;;;;;;;39.02;25.72;100388.61;1718919;81;21021;-63
2021/07/10 08:17:19;;;;;;;5.17;3.37;;;;;;;38.80;27.01;100388.94;1717552;81;21018;-63
2021/07/10 08:19:45;;;;;;;4.50;3.55;;;;;;;38.56;25.89;100397.55;1756095;79;21178;-60
2021/07/10 08:22:13;;;;;;;5.83;3.80;;;;;;;38.17;26.08;100390.95;1723934;82;21023;-62
2021/07/10 08:24:40;;;;;;;7.17;4.05;;;;;;;38.16;26.56;100388.81;1724361;83;21003;-63
2021/07/10 08:27:07;;;;;;;4.37;3.77;;;;;;;38.22;26.21;100382.47;1754995;80;21093;-60
2021/07/10 08:29:35;;;;;;;8.23;4.22;;;;;;;38.22;25.96;100386.55;1756507;79;21108;-63
2021/07/10 08:32:01;;;;;;;4.95;3.92;;;;;;;38.36;26.77;100384.06;1723926;82;21134;-65
2021/07/10 08:34:28;;;;;;;4.85;3.92;;;;;;;38.67;26.04;100384.26;1724043;83;21077;-64
2021/07/10 08:36:57;;;;;;;4.35;3.80;;;;;;;38.73;26.39;100375.20;1756490;79;20979;-60
2021/07/10 08:39:23;;;;;;;4.22;3.83;;;;;;;38.75;25.88;100379.68;1724384;81;21009;-64
2021/07/10 08:41:49;;;;;;;6.42;3.70;;;;;;;38.58;26.38;100369.37;1755099;79;20998;-60
2021/07/10 08:44:16;;;;;;;4.20;3.80;;;;;;;38.66;26.03;100373.74;1755904;79;21094;-64
2021/07/10 08:46:44;;;;;;;4.92;3.70;;;;;;;38.65;26.38;100373.55;1756174;79;20981;-63
2021/07/10 08:49:14;;;;;;;5.08;3.77;;;;;;;38.63;26.54;100373.90;1752245;80;21007;-59
2021/07/10 08:51:46;;;;;;;4.50;3.95;;;;;;;38.98;25.92;100371.41;1724990;81;21112;-63
2021/07/10 08:54:14;;;;;;;7.22;3.85;;;;;;;39.18;25.98;100377.47;1723803;81;21058;-63
2021/07/10 08:56:41;;;;;;;4.30;3.67;;;;;;;38.91;25.41;100372.13;1756395;79;21072;-64
2021/07/10 08:59:10;;;;;;;6.67;3.98;;;;;;;38.54;26.72;100369.32;1724218;81;21029;-60
2021/07/10 09:01:36;;;;;;;6.83;3.77;;;;;;;38.18;27.13;100368.02;1694687;83;21036;-63
2021/07/10 09:04:03;;;;;;;3.40;3.08;;;;;;;37.95;27.52;100365.36;1720539;82;20944;-60
2021/07/10 09:06:31;;;;;;;4.10;3.52;;;;;;;38.04;27.17;100365.12;1722506;83;21006;-65
2021/07/10 09:08:57;;;;;;;5.28;3.83;;;;;;;38.22;27.13;100372.94;1722167;81;21117;-63
2021/07/10 09:11:26;;;;;;;5.15;4.20;;;;;;;38.30;26.93;100371.91;1722067;83;21034;-65
2021/07/10 09:13:54;;;;;;;4.15;3.75;;;;;;;38.22;25.62;100363.41;1722067;83;21006;-60
2021/07/10 09:16:35;;;;;;;5.40;4.12;;;;;;;38.14;26.28;100363.10;1722336;81;21018;-62
2021/07/10 09:19:05;;;;;;;4.10;3.70;;;;;;;38.08;26.87;100363.23;1721962;83;21003;-63
2021/07/10 09:21:48;;;;;;;4.65;3.80;;;;;;;38.25;27.11;100357.23;1719756;83;21181;-60
2021/07/10 09:24:17;;;;;;;4.60;4.05;;;;;;;38.74;25.98;100348.73;1722270;83;20939;-63
2021/07/10 09:26:50;;;;;;;4.90;3.83;;;;;;;38.92;26.26;100354.61;1719658;83;21003;-63
2021/07/10 09:29:22;;;;;;;5.62;3.58;;;;;;;38.94;26.02;100353.64;1719026;81;21059;-60
2021/07/10 09:31:55;;;;;;;5.25;4.00;;;;;;;38.95;27.17;100355.81;1721512;81;21165;-64
2021/07/10 09:34:27;;;;;;;6.75;3.58;;;;;;;39.27;26.69;100362.19;1720123;83;21723;-63
2021/07/10 09:37:18;;;;;;;5.03;3.65;;;;;;;39.34;25.28;100353.49;1721892;83;21504;-62
2021/07/10 09:40:05;;;;;;;4.45;3.40;;;;;;;39.44;24.70;100345.77;1721882;81;20908;-60
2021/07/10 09:42:37;;;;;;;6.95;3.40;;;;;;;39.40;24.65;100345.73;1721343;83;21568;-61
2021/07/10 09:45:10;;;;;;;4.90;3.65;;;;;;;38.93;25.41;100341.18;1721233;81;21125;-63
2021/07/10 09:47:37;;;;;;;3.40;3.10;;;;;;;38.35;25.28;100347.09;1719702;83;22237;-67
2021/07/10 09:50:07;;;;;;;4.50;3.55;;;;;;;38.45;26.29;100345.09;1722243;83;21139;-66
2021/07/10 09:52:35;;;;;;;5.17;3.37;;;;;;;38.54;26.00;100346.75;1719485;83;21489;-67
2021/07/10 09:55:06;;;;;;;4.10;3.65;;;;;;;38.68;26.43;100341.45;1722230;83;21313;-67
2021/07/10 09:57:35;;;;;;;5.45;3.25;;;;;;;39.27;26.63;100338.42;1721892;83;21483;-62
2021/07/10 10:00:09;;;;;;;5.08;4.00;;;;;;;39.48;24.79;100338.42;1721891;81;21083;-67
2021/07/10 10:02:50;;;;;;;6.45;3.60;;;;;;;39.26;25.30;100331.41;1721647;82;21575;-65
2021/07/10 10:05:24;;;;;;;4.87;3.83;;;;;;;39.23;26.09;100325.90;1752082;80;20948;-61
2021/07/10 10:07:56;;;;;;;4.00;2.83;;;;;;;39.23;26.59;100329.41;1718569;81;21112;-65
2021/07/10 10:10:32;;;;;;;4.65;3.80;;;;;;;39.18;26.30;100318.85;1716365;81;21011;-62
2021/07/10 10:13:10;;;;;;;5.03;3.17;;;;;;;38.80;26.90;100320.03;1751639;79;21559;-61
2021/07/10 10:15:51;;;;;;;5.00;3.80;;;;;;;38.21;27.16;100316.92;1716776;81;21031;-66
2021/07/10 10:18:23;;;;;;;5.50;3.70;;;;;;;37.80;26.89;100316.70;1717470;82;20959;-65
2021/07/10 10:20:52;;;;;;;4.37;3.98;;;;;;;37.70;27.54;100314.63;1743581;80;20974;-65
2021/07/10 10:23:19;;;;;;;10.48;4.05;;;;;;;37.87;27.89;100308.66;1716583;82;21034;-66
2021/07/10 10:25:47;;;;;;;4.10;3.70;;;;;;;38.05;27.72;100302.72;1723604;81;21170;-60
2021/07/10 10:28:18;;;;;;;4.95;3.50;;;;;;;38.68;26.97;100296.50;1755825;79;20938;-66
2021/07/10 10:30:44;;;;;;;5.22;3.20;;;;;;;39.34;26.50;100300.31;1754679;80;20995;-63
2021/07/10 10:33:12;;;;;;;7.22;3.80;;;;;;;39.75;26.13;100301.62;1757292;79;21094;-66
2021/07/10 10:35:39;;;;;;;5.95;3.75;;;;;;;39.84;25.88;100302.05;1724604;81;21030;-60
2021/07/10 10:38:05;;;;;;;5.00;3.65;;;;;;;39.77;26.66;100297.91;1723644;81;21138;-66
2021/07/10 10:40:32;;;;;;;4.33;3.60;;;;;;;40.04;25.84;100303.13;1755752;79;20997;-66
2021/07/10 10:43:02;;;;;;;3.70;3.27;;;;;;;40.42;25.35;100302.34;1723639;82;21002;-62
2021/07/10 10:45:32;;;;;;;4.12;2.83;;;;;;;40.49;24.35;100296.91;1724027;81;21444;-67
2021/07/10 10:48:01;;;;;;;6.42;3.85;;;;;;;40.43;24.75;100298.47;1755520;79;20942;-67
2021/07/10 10:50:31;;;;;;;5.42;3.62;;;;;;;40.45;24.50;100296.90;1724999;81;21946;-67
2021/07/10 10:52:58;;;;;;;11.22;3.72;;;;;;;40.35;24.60;100287.52;1723712;81;21604;-61
2021/07/10 10:55:36;;;;;;;3.92;3.20;;;;;;;40.22;25.56;100290.38;1751162;79;21263;-69
2021/07/10 10:58:19;;;;;;;5.28;3.80;;;;;;;40.15;25.72;100288.98;1742030;79;20938;-68
2021/07/10 11:01:01;;;;;;;5.90;3.50;;;;;;;40.06;25.10;100288.53;1710898;82;21803;-62
2021/07/10 11:03:40;;;;;;;4.97;3.42;;;;;;;40.25;25.12;100288.25;1709116;81;21133;-66
2021/07/10 11:06:30;;;;;;;8.05;3.60;;;;;;;40.12;24.65;100292.47;1715223;80;20966;-68
2021/07/10 11:08:58;;;;;;;5.72;3.60;;;;;;;39.62;25.57;100289.40;1743445;79;21052;-63
2021/07/10 11:11:28;;;;;;;5.00;3.67;;;;;;;40.16;24.05;100289.20;1717628;81;21557;-67
2021/07/10 11:14:00;;;;;;;5.47;3.08;;;;;;;39.97;24.76;100292.17;1711803;81;21615;-62
2021/07/10 11:16:27;;;;;;;4.60;4.00;;;;;;;40.04;25.41;100288.11;1747446;80;21300;-68
2021/07/10 11:19:05;;;;;;;5.50;3.37;;;;;;;40.18;24.61;100290.95;1748252;79;21014;-62
2021/07/10 11:21:48;;;;;;;6.90;4.20;;;;;;;40.34;25.59;100287.88;1754459;79;21606;-64
2021/07/10 11:24:24;;;;;;;5.05;3.67;;;;;;;40.38;24.17;100283.99;1723560;81;21627;-69
2021/07/10 11:27:01;;;;;;;4.25;2.98;;;;;;;40.32;25.13;100280.09;1723845;83;20986;-67